sensor_id;sensor_type;location;lat;lon;timestamp;temperature;humidity
31729;DHT22;18309;43.658;1.312;2023-06-10T00:00:43;19.20;99.90
31729;DHT22;18309;43.658;1.312;2023-06-10T00:03:09;19.20;99.90
31729;DHT22;18309;43.658;1.312;2023-06-10T00:05:35;19.20;99.90
31729;DHT22;18309;43.658;1.312;2023-06-10T00:08:04;19.10;99.90
31729;DHT22;18309;43.658;1.312;2023-06-10T00:10:36;19.10;99.90
31729;DHT22;18309;43.658;1.312;2023-06-10T00:13:03;19.10;99.90
31729;DHT22;18309;43.658;1.312;2023-06-10T00:15:29;19.10;99.90
31729;DHT22;18309;43.658;1.312;2023-06-10T00:17:55;19.10;99.90
31729;DHT22;18309;43.658;1.312;2023-06-10T00:20:21;19.10;99.90
31729;DHT22;18309;43.658;1.312;2023-06-10T00:22:50;19.00;99.90
31729;DHT22;18309;43.658;1.312;2023-06-10T00:25:16;19.00;99.90
31729;DHT22;18309;43.658;1.312;2023-06-10T00:27:42;19.00;99.90
31729;DHT22;18309;43.658;1.312;2023-06-10T00:30:08;19.00;99.90
31729;DHT22;18309;43.658;1.312;2023-06-10T00:32:35;18.90;99.90
31729;DHT22;18309;43.658;1.312;2023-06-10T00:35:01;18.90;99.90
31729;DHT22;18309;43.658;1.312;2023-06-10T00:37:27;18.90;99.90
31729;DHT22;18309;43.658;1.312;2023-06-10T00:39:54;18.90;99.90
31729;DHT22;18309;43.658;1.312;2023-06-10T00:42:20;18.90;99.90
31729;DHT22;18309;43.658;1.312;2023-06-10T00:44:48;18.90;99.90
31729;DHT22;18309;43.658;1.312;2023-06-10T00:47:13;18.90;99.90
31729;DHT22;18309;43.658;1.312;2023-06-10T00:49:39;18.90;99.90
31729;DHT22;18309;43.658;1.312;2023-06-10T00:52:07;18.80;99.90
31729;DHT22;18309;43.658;1.312;2023-06-10T00:54:33;18.80;99.90
31729;DHT22;18309;43.658;1.312;2023-06-10T00:57:01;18.80;99.90
31729;DHT22;18309;43.658;1.312;2023-06-10T00:59:28;18.80;99.90
31729;DHT22;18309;43.658;1.312;2023-06-10T01:01:56;18.80;99.90
31729;DHT22;18309;43.658;1.312;2023-06-10T01:04:22;18.70;99.90
31729;DHT22;18309;43.658;1.312;2023-06-10T01:07:20;18.80;99.90
31729;DHT22;18309;43.658;1.312;2023-06-10T01:10:10;18.70;99.90
31729;DHT22;18309;43.658;1.312;2023-06-10T01:12:43;18.70;99.90
31729;DHT22;18309;43.658;1.312;2023-06-10T01:15:15;18.70;99.90
31729;DHT22;18309;43.658;1.312;2023-06-10T01:18:14;18.70;99.90
31729;DHT22;18309;43.658;1.312;2023-06-10T01:20:43;18.60;99.90
31729;DHT22;18309;43.658;1.312;2023-06-10T01:23:10;18.60;99.90
31729;DHT22;18309;43.658;1.312;2023-06-10T01:25:43;18.60;99.90
31729;DHT22;18309;43.658;1.312;2023-06-10T01:28:32;18.60;99.90
31729;DHT22;18309;43.658;1.312;2023-06-10T01:33:47;18.60;99.90
31729;DHT22;18309;43.658;1.312;2023-06-10T01:36:14;18.60;99.90
31729;DHT22;18309;43.658;1.312;2023-06-10T01:38:45;18.60;99.90
31729;DHT22;18309;43.658;1.312;2023-06-10T01:41:17;18.60;99.90
31729;DHT22;18309;43.658;1.312;2023-06-10T01:43:44;18.60;99.90
31729;DHT22;18309;43.658;1.312;2023-06-10T01:46:10;18.60;99.90
31729;DHT22;18309;43.658;1.312;2023-06-10T01:48:38;18.60;99.90
31729;DHT22;18309;43.658;1.312;2023-06-10T01:51:04;18.60;99.90
31729;DHT22;18309;43.658;1.312;2023-06-10T01:53:30;18.60;99.90
31729;DHT22;18309;43.658;1.312;2023-06-10T01:55:55;18.50;99.90
31729;DHT22;18309;43.658;1.312;2023-06-10T01:58:21;18.50;99.90
31729;DHT22;18309;43.658;1.312;2023-06-10T02:00:47;18.50;99.90
31729;DHT22;18309;43.658;1.312;2023-06-10T02:03:12;18.50;99.90
31729;DHT22;18309;43.658;1.312;2023-06-10T02:05:39;18.50;99.90
31729;DHT22;18309;43.658;1.312;2023-06-10T02:08:05;18.50;99.90
31729;DHT22;18309;43.658;1.312;2023-06-10T02:10:32;18.50;99.90
31729;DHT22;18309;43.658;1.312;2023-06-10T02:12:58;18.50;99.90
31729;DHT22;18309;43.658;1.312;2023-06-10T02:15:23;18.50;99.90
31729;DHT22;18309;43.658;1.312;2023-06-10T02:17:49;18.40;99.90
31729;DHT22;18309;43.658;1.312;2023-06-10T02:20:16;18.40;99.90
31729;DHT22;18309;43.658;1.312;2023-06-10T02:22:42;18.40;99.90
31729;DHT22;18309;43.658;1.312;2023-06-10T02:25:08;18.40;99.90
31729;DHT22;18309;43.658;1.312;2023-06-10T02:27:34;18.30;99.90
31729;DHT22;18309;43.658;1.312;2023-06-10T02:30:00;18.30;99.90
31729;DHT22;18309;43.658;1.312;2023-06-10T02:32:26;18.30;99.90
31729;DHT22;18309;43.658;1.312;2023-06-10T02:34:52;18.30;99.90
31729;DHT22;18309;43.658;1.312;2023-06-10T02:37:18;18.30;99.90
31729;DHT22;18309;43.658;1.312;2023-06-10T02:39:44;18.30;99.90
31729;DHT22;18309;43.658;1.312;2023-06-10T02:42:09;18.30;99.90
31729;DHT22;18309;43.658;1.312;2023-06-10T02:44:36;18.30;99.90
31729;DHT22;18309;43.658;1.312;2023-06-10T02:47:02;18.30;99.90
31729;DHT22;18309;43.658;1.312;2023-06-10T02:49:27;18.20;99.90
31729;DHT22;18309;43.658;1.312;2023-06-10T02:51:53;18.20;99.90
31729;DHT22;18309;43.658;1.312;2023-06-10T02:54:20;18.20;99.90
31729;DHT22;18309;43.658;1.312;2023-06-10T02:56:46;18.20;99.90
31729;DHT22;18309;43.658;1.312;2023-06-10T02:59:13;18.10;99.90
31729;DHT22;18309;43.658;1.312;2023-06-10T03:01:41;18.10;99.90
31729;DHT22;18309;43.658;1.312;2023-06-10T03:04:07;18.10;99.90
31729;DHT22;18309;43.658;1.312;2023-06-10T03:06:33;18.10;99.90
31729;DHT22;18309;43.658;1.312;2023-06-10T03:09:00;18.00;99.90
31729;DHT22;18309;43.658;1.312;2023-06-10T03:11:26;18.10;99.90
31729;DHT22;18309;43.658;1.312;2023-06-10T03:13:52;18.00;99.90
31729;DHT22;18309;43.658;1.312;2023-06-10T03:16:19;18.00;99.90
31729;DHT22;18309;43.658;1.312;2023-06-10T03:18:45;18.00;99.90
31729;DHT22;18309;43.658;1.312;2023-06-10T03:21:11;17.90;99.90
31729;DHT22;18309;43.658;1.312;2023-06-10T03:23:37;18.00;99.90
31729;DHT22;18309;43.658;1.312;2023-06-10T03:26:03;18.00;99.90
31729;DHT22;18309;43.658;1.312;2023-06-10T03:28:30;17.90;99.90
31729;DHT22;18309;43.658;1.312;2023-06-10T03:30:56;17.90;99.90
31729;DHT22;18309;43.658;1.312;2023-06-10T03:33:22;17.90;99.90
31729;DHT22;18309;43.658;1.312;2023-06-10T03:35:48;17.90;99.90
31729;DHT22;18309;43.658;1.312;2023-06-10T03:38:13;17.90;99.90
31729;DHT22;18309;43.658;1.312;2023-06-10T03:40:40;17.90;99.90
31729;DHT22;18309;43.658;1.312;2023-06-10T03:43:05;17.90;99.90
31729;DHT22;18309;43.658;1.312;2023-06-10T03:45:31;17.90;99.90
31729;DHT22;18309;43.658;1.312;2023-06-10T03:47:58;17.80;99.90
31729;DHT22;18309;43.658;1.312;2023-06-10T03:50:23;17.80;99.90
31729;DHT22;18309;43.658;1.312;2023-06-10T03:52:50;17.80;99.90
31729;DHT22;18309;43.658;1.312;2023-06-10T03:55:16;17.80;99.90
31729;DHT22;18309;43.658;1.312;2023-06-10T03:57:42;17.80;99.90
31729;DHT22;18309;43.658;1.312;2023-06-10T04:00:09;17.80;99.90
31729;DHT22;18309;43.658;1.312;2023-06-10T04:02:38;17.80;99.90
31729;DHT22;18309;43.658;1.312;2023-06-10T04:05:12;17.70;99.90
31729;DHT22;18309;43.658;1.312;2023-06-10T04:07:37;17.70;99.90
31729;DHT22;18309;43.658;1.312;2023-06-10T04:10:06;17.70;99.90
31729;DHT22;18309;43.658;1.312;2023-06-10T04:12:32;17.70;99.90
31729;DHT22;18309;43.658;1.312;2023-06-10T04:14:58;17.70;99.90
31729;DHT22;18309;43.658;1.312;2023-06-10T04:17:25;17.70;99.90
31729;DHT22;18309;43.658;1.312;2023-06-10T04:19:51;17.70;99.90
31729;DHT22;18309;43.658;1.312;2023-06-10T04:22:18;17.60;99.90
31729;DHT22;18309;43.658;1.312;2023-06-10T04:24:44;17.60;99.90
31729;DHT22;18309;43.658;1.312;2023-06-10T04:27:09;17.60;99.90
31729;DHT22;18309;43.658;1.312;2023-06-10T04:29:35;17.60;99.90
31729;DHT22;18309;43.658;1.312;2023-06-10T04:32:02;17.60;99.90
31729;DHT22;18309;43.658;1.312;2023-06-10T04:34:28;17.60;99.90
31729;DHT22;18309;43.658;1.312;2023-06-10T04:36:54;17.60;99.90
31729;DHT22;18309;43.658;1.312;2023-06-10T04:39:19;17.50;99.90
31729;DHT22;18309;43.658;1.312;2023-06-10T04:41:46;17.60;99.90
31729;DHT22;18309;43.658;1.312;2023-06-10T04:44:12;17.50;99.90
31729;DHT22;18309;43.658;1.312;2023-06-10T04:46:38;17.50;99.90
31729;DHT22;18309;43.658;1.312;2023-06-10T04:49:03;17.50;99.90
31729;DHT22;18309;43.658;1.312;2023-06-10T04:51:30;17.50;99.90
31729;DHT22;18309;43.658;1.312;2023-06-10T04:53:57;17.60;99.90
31729;DHT22;18309;43.658;1.312;2023-06-10T04:56:23;17.50;99.90
31729;DHT22;18309;43.658;1.312;2023-06-10T04:58:49;17.50;99.90
31729;DHT22;18309;43.658;1.312;2023-06-10T05:01:15;17.60;99.90
31729;DHT22;18309;43.658;1.312;2023-06-10T05:03:41;17.60;99.90
31729;DHT22;18309;43.658;1.312;2023-06-10T05:06:07;17.60;99.90
31729;DHT22;18309;43.658;1.312;2023-06-10T05:08:33;17.60;99.90
31729;DHT22;18309;43.658;1.312;2023-06-10T05:10:59;17.60;99.90
31729;DHT22;18309;43.658;1.312;2023-06-10T05:13:24;17.60;99.90
31729;DHT22;18309;43.658;1.312;2023-06-10T05:15:50;17.60;99.90
31729;DHT22;18309;43.658;1.312;2023-06-10T05:18:16;17.60;99.90
31729;DHT22;18309;43.658;1.312;2023-06-10T05:20:42;17.60;99.90
31729;DHT22;18309;43.658;1.312;2023-06-10T05:23:07;17.60;99.90
31729;DHT22;18309;43.658;1.312;2023-06-10T05:25:33;17.70;99.90
31729;DHT22;18309;43.658;1.312;2023-06-10T05:27:59;17.70;99.90
31729;DHT22;18309;43.658;1.312;2023-06-10T05:30:25;17.60;99.90
31729;DHT22;18309;43.658;1.312;2023-06-10T05:32:52;18.00;99.90
31729;DHT22;18309;43.658;1.312;2023-06-10T05:35:18;18.50;99.90
31729;DHT22;18309;43.658;1.312;2023-06-10T05:37:44;18.80;99.90
31729;DHT22;18309;43.658;1.312;2023-06-10T05:40:10;18.20;99.90
31729;DHT22;18309;43.658;1.312;2023-06-10T05:42:36;18.10;99.90
31729;DHT22;18309;43.658;1.312;2023-06-10T05:45:02;17.90;99.90
31729;DHT22;18309;43.658;1.312;2023-06-10T05:47:28;17.90;99.90
31729;DHT22;18309;43.658;1.312;2023-06-10T05:49:54;18.10;99.90
31729;DHT22;18309;43.658;1.312;2023-06-10T05:52:19;18.20;99.90
31729;DHT22;18309;43.658;1.312;2023-06-10T05:54:45;18.10;99.90
31729;DHT22;18309;43.658;1.312;2023-06-10T05:57:11;17.90;99.90
31729;DHT22;18309;43.658;1.312;2023-06-10T05:59:37;17.90;99.90
31729;DHT22;18309;43.658;1.312;2023-06-10T06:02:03;17.90;99.90
31729;DHT22;18309;43.658;1.312;2023-06-10T06:04:28;17.80;99.90
31729;DHT22;18309;43.658;1.312;2023-06-10T06:06:54;18.00;99.90
31729;DHT22;18309;43.658;1.312;2023-06-10T06:09:20;18.20;99.90
31729;DHT22;18309;43.658;1.312;2023-06-10T06:11:45;18.10;99.90
31729;DHT22;18309;43.658;1.312;2023-06-10T06:14:11;17.80;99.90
31729;DHT22;18309;43.658;1.312;2023-06-10T06:16:37;17.70;99.90
31729;DHT22;18309;43.658;1.312;2023-06-10T06:19:03;17.80;99.90
31729;DHT22;18309;43.658;1.312;2023-06-10T06:21:29;17.80;99.90
31729;DHT22;18309;43.658;1.312;2023-06-10T06:23:55;18.80;99.90
31729;DHT22;18309;43.658;1.312;2023-06-10T06:26:20;18.60;99.90
31729;DHT22;18309;43.658;1.312;2023-06-10T06:28:46;18.70;99.90
31729;DHT22;18309;43.658;1.312;2023-06-10T06:31:12;18.50;99.90
31729;DHT22;18309;43.658;1.312;2023-06-10T06:33:37;18.50;99.90
31729;DHT22;18309;43.658;1.312;2023-06-10T06:36:03;18.30;99.90
31729;DHT22;18309;43.658;1.312;2023-06-10T06:38:29;18.40;99.90
31729;DHT22;18309;43.658;1.312;2023-06-10T06:40:55;18.50;99.90
31729;DHT22;18309;43.658;1.312;2023-06-10T06:43:20;18.40;99.90
31729;DHT22;18309;43.658;1.312;2023-06-10T06:45:46;18.40;99.90
31729;DHT22;18309;43.658;1.312;2023-06-10T06:48:12;18.50;99.90
31729;DHT22;18309;43.658;1.312;2023-06-10T06:50:38;18.60;99.90
31729;DHT22;18309;43.658;1.312;2023-06-10T06:53:04;18.60;99.90
31729;DHT22;18309;43.658;1.312;2023-06-10T06:55:30;18.60;99.90
31729;DHT22;18309;43.658;1.312;2023-06-10T06:57:55;18.70;99.90
31729;DHT22;18309;43.658;1.312;2023-06-10T07:00:21;18.70;99.90
31729;DHT22;18309;43.658;1.312;2023-06-10T07:02:48;18.80;99.90
31729;DHT22;18309;43.658;1.312;2023-06-10T07:05:14;19.60;99.90
31729;DHT22;18309;43.658;1.312;2023-06-10T07:07:40;19.40;99.90
31729;DHT22;18309;43.658;1.312;2023-06-10T07:10:06;19.30;99.90
31729;DHT22;18309;43.658;1.312;2023-06-10T07:12:32;19.30;99.90
31729;DHT22;18309;43.658;1.312;2023-06-10T07:14:58;19.20;99.90
31729;DHT22;18309;43.658;1.312;2023-06-10T07:17:23;19.30;99.90
31729;DHT22;18309;43.658;1.312;2023-06-10T07:19:49;19.30;99.90
31729;DHT22;18309;43.658;1.312;2023-06-10T07:22:16;19.30;99.90
31729;DHT22;18309;43.658;1.312;2023-06-10T07:24:42;19.40;99.90
31729;DHT22;18309;43.658;1.312;2023-06-10T07:27:08;19.50;99.90
31729;DHT22;18309;43.658;1.312;2023-06-10T07:29:35;19.70;99.90
31729;DHT22;18309;43.658;1.312;2023-06-10T07:32:03;19.80;99.90
31729;DHT22;18309;43.658;1.312;2023-06-10T07:34:28;19.90;99.90
31729;DHT22;18309;43.658;1.312;2023-06-10T07:36:54;19.90;99.90
31729;DHT22;18309;43.658;1.312;2023-06-10T07:39:20;19.90;99.90
31729;DHT22;18309;43.658;1.312;2023-06-10T07:41:45;20.00;99.90
31729;DHT22;18309;43.658;1.312;2023-06-10T07:44:11;20.10;99.90
31729;DHT22;18309;43.658;1.312;2023-06-10T07:46:36;20.20;99.90
31729;DHT22;18309;43.658;1.312;2023-06-10T07:49:02;20.30;99.90
31729;DHT22;18309;43.658;1.312;2023-06-10T07:51:28;20.30;99.90
31729;DHT22;18309;43.658;1.312;2023-06-10T07:53:53;20.40;99.90
31729;DHT22;18309;43.658;1.312;2023-06-10T07:56:19;20.40;99.90
31729;DHT22;18309;43.658;1.312;2023-06-10T07:58:47;20.40;99.90
31729;DHT22;18309;43.658;1.312;2023-06-10T08:01:12;20.50;99.90
31729;DHT22;18309;43.658;1.312;2023-06-10T08:03:38;20.50;99.90
31729;DHT22;18309;43.658;1.312;2023-06-10T08:06:04;20.60;99.90
31729;DHT22;18309;43.658;1.312;2023-06-10T08:08:31;20.60;99.90
31729;DHT22;18309;43.658;1.312;2023-06-10T08:10:56;20.60;99.90
31729;DHT22;18309;43.658;1.312;2023-06-10T08:13:22;20.70;99.90
31729;DHT22;18309;43.658;1.312;2023-06-10T08:15:48;20.80;99.90
31729;DHT22;18309;43.658;1.312;2023-06-10T08:18:15;20.90;99.90
31729;DHT22;18309;43.658;1.312;2023-06-10T08:20:41;21.00;99.90
31729;DHT22;18309;43.658;1.312;2023-06-10T08:23:07;21.00;99.90
31729;DHT22;18309;43.658;1.312;2023-06-10T08:25:32;21.10;99.90
31729;DHT22;18309;43.658;1.312;2023-06-10T08:27:58;21.20;99.90
31729;DHT22;18309;43.658;1.312;2023-06-10T08:30:24;21.20;99.90
31729;DHT22;18309;43.658;1.312;2023-06-10T08:32:49;21.30;99.90
31729;DHT22;18309;43.658;1.312;2023-06-10T08:35:17;21.30;99.90
31729;DHT22;18309;43.658;1.312;2023-06-10T08:37:42;21.30;99.90
31729;DHT22;18309;43.658;1.312;2023-06-10T08:40:08;21.40;99.90
31729;DHT22;18309;43.658;1.312;2023-06-10T08:42:45;21.50;99.90
31729;DHT22;18309;43.658;1.312;2023-06-10T08:45:17;21.50;99.90
31729;DHT22;18309;43.658;1.312;2023-06-10T08:47:44;21.50;99.90
31729;DHT22;18309;43.658;1.312;2023-06-10T08:50:10;21.70;99.90
31729;DHT22;18309;43.658;1.312;2023-06-10T08:52:37;21.70;99.90
31729;DHT22;18309;43.658;1.312;2023-06-10T08:55:08;21.90;99.90
31729;DHT22;18309;43.658;1.312;2023-06-10T08:57:36;21.80;99.90
31729;DHT22;18309;43.658;1.312;2023-06-10T09:00:03;22.00;99.90
31729;DHT22;18309;43.658;1.312;2023-06-10T09:02:29;22.00;99.90
31729;DHT22;18309;43.658;1.312;2023-06-10T09:04:56;22.00;99.90
31729;DHT22;18309;43.658;1.312;2023-06-10T09:07:23;21.90;99.90
31729;DHT22;18309;43.658;1.312;2023-06-10T09:09:49;21.80;99.90
31729;DHT22;18309;43.658;1.312;2023-06-10T09:12:15;21.90;99.90
31729;DHT22;18309;43.658;1.312;2023-06-10T09:14:44;21.90;99.90
31729;DHT22;18309;43.658;1.312;2023-06-10T09:17:10;22.00;99.90
31729;DHT22;18309;43.658;1.312;2023-06-10T09:19:36;22.10;99.90
31729;DHT22;18309;43.658;1.312;2023-06-10T09:22:04;22.30;99.90
31729;DHT22;18309;43.658;1.312;2023-06-10T09:24:29;22.20;99.90
31729;DHT22;18309;43.658;1.312;2023-06-10T09:27:04;22.20;99.90
31729;DHT22;18309;43.658;1.312;2023-06-10T09:29:30;22.20;99.90
31729;DHT22;18309;43.658;1.312;2023-06-10T09:31:56;22.20;99.90
31729;DHT22;18309;43.658;1.312;2023-06-10T09:34:25;22.20;99.90
31729;DHT22;18309;43.658;1.312;2023-06-10T09:36:51;22.40;99.90
31729;DHT22;18309;43.658;1.312;2023-06-10T09:39:18;22.60;99.90
31729;DHT22;18309;43.658;1.312;2023-06-10T09:41:45;22.80;99.90
31729;DHT22;18309;43.658;1.312;2023-06-10T09:44:19;22.70;99.90
31729;DHT22;18309;43.658;1.312;2023-06-10T09:46:47;22.80;99.90
31729;DHT22;18309;43.658;1.312;2023-06-10T09:49:13;22.90;99.90
31729;DHT22;18309;43.658;1.312;2023-06-10T09:51:55;22.90;99.90
31729;DHT22;18309;43.658;1.312;2023-06-10T09:54:21;22.80;99.90
31729;DHT22;18309;43.658;1.312;2023-06-10T09:56:48;22.80;99.90
31729;DHT22;18309;43.658;1.312;2023-06-10T09:59:15;22.80;99.90
31729;DHT22;18309;43.658;1.312;2023-06-10T10:01:41;23.00;99.90
31729;DHT22;18309;43.658;1.312;2023-06-10T10:04:07;23.00;99.90
31729;DHT22;18309;43.658;1.312;2023-06-10T10:06:34;23.00;99.90
31729;DHT22;18309;43.658;1.312;2023-06-10T10:09:00;23.10;99.90
31729;DHT22;18309;43.658;1.312;2023-06-10T10:11:27;23.20;99.90
31729;DHT22;18309;43.658;1.312;2023-06-10T10:13:53;23.20;99.90
31729;DHT22;18309;43.658;1.312;2023-06-10T10:16:37;23.30;99.90
31729;DHT22;18309;43.658;1.312;2023-06-10T10:19:18;23.60;99.90
31729;DHT22;18309;43.658;1.312;2023-06-10T10:21:52;23.60;99.90
31729;DHT22;18309;43.658;1.312;2023-06-10T10:24:24;23.60;99.90
31729;DHT22;18309;43.658;1.312;2023-06-10T10:26:52;23.60;99.90
31729;DHT22;18309;43.658;1.312;2023-06-10T10:29:38;23.50;99.90
31729;DHT22;18309;43.658;1.312;2023-06-10T10:32:06;23.50;99.90
31729;DHT22;18309;43.658;1.312;2023-06-10T10:34:53;23.60;99.90
31729;DHT22;18309;43.658;1.312;2023-06-10T10:37:23;23.70;99.90
31729;DHT22;18309;43.658;1.312;2023-06-10T10:39:50;23.70;99.90
31729;DHT22;18309;43.658;1.312;2023-06-10T10:42:16;23.60;99.90
31729;DHT22;18309;43.658;1.312;2023-06-10T10:44:42;23.70;99.90
31729;DHT22;18309;43.658;1.312;2023-06-10T10:47:09;23.90;99.90
31729;DHT22;18309;43.658;1.312;2023-06-10T10:49:36;24.10;99.90
31729;DHT22;18309;43.658;1.312;2023-06-10T10:52:03;24.30;99.90
31729;DHT22;18309;43.658;1.312;2023-06-10T10:54:35;24.30;99.90
31729;DHT22;18309;43.658;1.312;2023-06-10T10:57:20;24.30;99.90
31729;DHT22;18309;43.658;1.312;2023-06-10T11:02:33;24.00;99.90
31729;DHT22;18309;43.658;1.312;2023-06-10T11:05:01;23.90;99.90
31729;DHT22;18309;43.658;1.312;2023-06-10T11:07:30;23.90;99.90
31729;DHT22;18309;43.658;1.312;2023-06-10T11:10:10;24.00;99.90
31729;DHT22;18309;43.658;1.312;2023-06-10T11:15:11;24.50;96.90
31729;DHT22;18309;43.658;1.312;2023-06-10T11:17:37;24.50;98.20
31729;DHT22;18309;43.658;1.312;2023-06-10T11:20:03;24.60;98.00
31729;DHT22;18309;43.658;1.312;2023-06-10T11:22:29;24.60;98.10
31729;DHT22;18309;43.658;1.312;2023-06-10T11:24:55;24.70;98.20
31729;DHT22;18309;43.658;1.312;2023-06-10T11:27:21;24.60;99.60
31729;DHT22;18309;43.658;1.312;2023-06-10T11:32:32;24.80;98.40
31729;DHT22;18309;43.658;1.312;2023-06-10T11:34:58;24.90;98.20
31729;DHT22;18309;43.658;1.312;2023-06-10T11:37:24;25.00;99.00
31729;DHT22;18309;43.658;1.312;2023-06-10T11:39:56;25.10;98.30
31729;DHT22;18309;43.658;1.312;2023-06-10T11:42:22;25.30;99.30
31729;DHT22;18309;43.658;1.312;2023-06-10T11:44:49;25.40;98.30
31729;DHT22;18309;43.658;1.312;2023-06-10T11:47:16;25.50;96.70
31729;DHT22;18309;43.658;1.312;2023-06-10T11:49:41;25.50;97.40
31729;DHT22;18309;43.658;1.312;2023-06-10T11:52:07;25.30;97.80
31729;DHT22;18309;43.658;1.312;2023-06-10T11:54:33;25.40;97.60
31729;DHT22;18309;43.658;1.312;2023-06-10T11:56:59;25.40;97.50
31729;DHT22;18309;43.658;1.312;2023-06-10T11:59:28;25.60;98.10
31729;DHT22;18309;43.658;1.312;2023-06-10T12:01:54;25.50;95.70
31729;DHT22;18309;43.658;1.312;2023-06-10T12:04:20;25.50;94.50
31729;DHT22;18309;43.658;1.312;2023-06-10T12:06:49;25.50;94.30
31729;DHT22;18309;43.658;1.312;2023-06-10T12:09:22;25.50;94.70
31729;DHT22;18309;43.658;1.312;2023-06-10T12:11:50;25.40;94.90
31729;DHT22;18309;43.658;1.312;2023-06-10T12:14:47;25.60;95.60
31729;DHT22;18309;43.658;1.312;2023-06-10T12:17:02;25.60;95.20
31729;DHT22;18309;43.658;1.312;2023-06-10T12:19:28;25.70;95.20
31729;DHT22;18309;43.658;1.312;2023-06-10T12:21:53;25.70;95.60
31729;DHT22;18309;43.658;1.312;2023-06-10T12:24:19;25.80;95.40
31729;DHT22;18309;43.658;1.312;2023-06-10T12:26:45;25.90;94.70
31729;DHT22;18309;43.658;1.312;2023-06-10T12:29:20;25.80;93.90
31729;DHT22;18309;43.658;1.312;2023-06-10T12:31:59;25.70;93.60
31729;DHT22;18309;43.658;1.312;2023-06-10T12:34:43;25.70;94.20
31729;DHT22;18309;43.658;1.312;2023-06-10T12:37:12;25.70;94.10
31729;DHT22;18309;43.658;1.312;2023-06-10T12:39:42;25.60;94.90
31729;DHT22;18309;43.658;1.312;2023-06-10T12:42:12;25.60;95.00
31729;DHT22;18309;43.658;1.312;2023-06-10T12:44:41;25.60;94.60
31729;DHT22;18309;43.658;1.312;2023-06-10T12:47:08;25.60;95.10
31729;DHT22;18309;43.658;1.312;2023-06-10T12:49:35;25.60;94.30
31729;DHT22;18309;43.658;1.312;2023-06-10T12:52:01;25.50;95.40
31729;DHT22;18309;43.658;1.312;2023-06-10T12:54:26;25.50;95.20
31729;DHT22;18309;43.658;1.312;2023-06-10T12:56:52;25.70;94.50
31729;DHT22;18309;43.658;1.312;2023-06-10T12:59:18;26.00;93.80
31729;DHT22;18309;43.658;1.312;2023-06-10T13:01:49;26.30;92.40
31729;DHT22;18309;43.658;1.312;2023-06-10T13:04:16;28.90;88.40
31729;DHT22;18309;43.658;1.312;2023-06-10T13:06:42;34.00;76.90
31729;DHT22;18309;43.658;1.312;2023-06-10T13:09:08;36.70;67.00
31729;DHT22;18309;43.658;1.312;2023-06-10T13:11:34;37.30;66.80
31729;DHT22;18309;43.658;1.312;2023-06-10T13:14:00;32.30;72.00
31729;DHT22;18309;43.658;1.312;2023-06-10T13:16:28;29.50;80.10
31729;DHT22;18309;43.658;1.312;2023-06-10T13:18:54;28.70;82.40
31729;DHT22;18309;43.658;1.312;2023-06-10T13:21:20;28.20;82.30
31729;DHT22;18309;43.658;1.312;2023-06-10T13:23:46;27.60;84.40
31729;DHT22;18309;43.658;1.312;2023-06-10T13:26:14;27.40;85.40
31729;DHT22;18309;43.658;1.312;2023-06-10T13:28:42;27.40;86.80
31729;DHT22;18309;43.658;1.312;2023-06-10T13:31:07;27.50;86.90
31729;DHT22;18309;43.658;1.312;2023-06-10T13:33:33;27.50;87.50
31729;DHT22;18309;43.658;1.312;2023-06-10T13:35:59;27.50;87.70
31729;DHT22;18309;43.658;1.312;2023-06-10T13:38:25;27.50;86.30
31729;DHT22;18309;43.658;1.312;2023-06-10T13:40:50;30.30;86.20
31729;DHT22;18309;43.658;1.312;2023-06-10T13:43:16;32.00;81.90
31729;DHT22;18309;43.658;1.312;2023-06-10T13:45:42;32.00;78.40
31729;DHT22;18309;43.658;1.312;2023-06-10T13:48:08;32.70;78.20
31729;DHT22;18309;43.658;1.312;2023-06-10T13:50:34;32.10;77.00
31729;DHT22;18309;43.658;1.312;2023-06-10T13:53:00;31.50;76.70
31729;DHT22;18309;43.658;1.312;2023-06-10T13:55:25;30.40;75.50
31729;DHT22;18309;43.658;1.312;2023-06-10T13:57:51;29.80;78.00
31729;DHT22;18309;43.658;1.312;2023-06-10T14:07:07;30.00;80.10
31729;DHT22;18309;43.658;1.312;2023-06-10T14:09:33;29.90;78.40
31729;DHT22;18309;43.658;1.312;2023-06-10T14:11:58;29.40;77.80
31729;DHT22;18309;43.658;1.312;2023-06-10T14:14:24;29.30;78.00
31729;DHT22;18309;43.658;1.312;2023-06-10T14:16:50;29.40;77.20
31729;DHT22;18309;43.658;1.312;2023-06-10T14:19:15;29.60;77.90
31729;DHT22;18309;43.658;1.312;2023-06-10T14:21:41;29.50;79.00
31729;DHT22;18309;43.658;1.312;2023-06-10T14:24:10;29.50;77.80
31729;DHT22;18309;43.658;1.312;2023-06-10T14:26:35;29.70;76.70
31729;DHT22;18309;43.658;1.312;2023-06-10T14:29:01;29.30;77.50
31729;DHT22;18309;43.658;1.312;2023-06-10T14:31:28;29.40;79.90
31729;DHT22;18309;43.658;1.312;2023-06-10T14:33:54;29.60;79.90
31729;DHT22;18309;43.658;1.312;2023-06-10T14:36:19;29.80;77.40
31729;DHT22;18309;43.658;1.312;2023-06-10T14:38:45;29.50;76.50
31729;DHT22;18309;43.658;1.312;2023-06-10T14:41:11;29.30;77.70
31729;DHT22;18309;43.658;1.312;2023-06-10T14:43:37;29.60;77.10
31729;DHT22;18309;43.658;1.312;2023-06-10T14:46:03;29.70;76.90
31729;DHT22;18309;43.658;1.312;2023-06-10T14:48:29;29.60;78.30
31729;DHT22;18309;43.658;1.312;2023-06-10T14:50:54;29.40;76.20
31729;DHT22;18309;43.658;1.312;2023-06-10T14:53:20;29.30;76.50
31729;DHT22;18309;43.658;1.312;2023-06-10T14:55:46;29.40;76.10
31729;DHT22;18309;43.658;1.312;2023-06-10T14:58:12;29.40;77.20
31729;DHT22;18309;43.658;1.312;2023-06-10T15:00:38;29.90;77.80
31729;DHT22;18309;43.658;1.312;2023-06-10T15:03:03;30.20;76.70
31729;DHT22;18309;43.658;1.312;2023-06-10T15:05:29;30.40;74.10
31729;DHT22;18309;43.658;1.312;2023-06-10T15:07:55;30.60;74.60
31729;DHT22;18309;43.658;1.312;2023-06-10T15:10:21;30.70;73.80
31729;DHT22;18309;43.658;1.312;2023-06-10T15:12:47;30.70;73.00
31729;DHT22;18309;43.658;1.312;2023-06-10T15:15:13;31.00;73.70
31729;DHT22;18309;43.658;1.312;2023-06-10T15:17:39;31.00;75.20
31729;DHT22;18309;43.658;1.312;2023-06-10T15:20:05;31.10;72.00
31729;DHT22;18309;43.658;1.312;2023-06-10T15:22:31;31.20;73.30
31729;DHT22;18309;43.658;1.312;2023-06-10T15:24:56;31.30;74.10
31729;DHT22;18309;43.658;1.312;2023-06-10T15:27:23;31.20;70.50
31729;DHT22;18309;43.658;1.312;2023-06-10T15:29:48;31.20;71.80
31729;DHT22;18309;43.658;1.312;2023-06-10T15:32:15;31.10;70.30
31729;DHT22;18309;43.658;1.312;2023-06-10T15:34:41;31.20;70.90
31729;DHT22;18309;43.658;1.312;2023-06-10T15:37:07;31.20;70.80
31729;DHT22;18309;43.658;1.312;2023-06-10T15:39:32;31.30;70.70
31729;DHT22;18309;43.658;1.312;2023-06-10T15:41:58;31.50;73.40
31729;DHT22;18309;43.658;1.312;2023-06-10T15:44:24;31.80;73.70
31729;DHT22;18309;43.658;1.312;2023-06-10T15:46:50;32.00;72.40